createdAt,value
2019-01-14T00:00:45.718Z,21.40
2019-01-14T00:03:41.889Z,21.40
2019-01-14T00:06:36.820Z,21.40
2019-01-14T00:09:31.506Z,21.40
2019-01-14T00:12:26.023Z,21.40
2019-01-14T00:15:20.708Z,21.40
2019-01-14T00:18:15.738Z,21.40
2019-01-14T00:21:10.454Z,21.40
2019-01-14T00:24:04.913Z,21.40
2019-01-14T00:27:01.006Z,21.40
2019-01-14T00:29:55.744Z,21.30
2019-01-14T00:32:50.641Z,21.30
2019-01-14T00:35:45.301Z,21.30
2019-01-14T00:38:39.975Z,21.30
2019-01-14T00:41:34.882Z,21.30
2019-01-14T00:44:29.644Z,21.30
2019-01-14T00:47:24.702Z,21.20
2019-01-14T00:50:20.268Z,21.20
2019-01-14T00:53:15.211Z,21.20
2019-01-14T00:56:09.814Z,21.20
2019-01-14T00:59:04.543Z,21.20
2019-01-14T01:01:59.630Z,21.20
2019-01-14T01:04:54.822Z,21.20
2019-01-14T01:07:49.739Z,21.20
2019-01-14T01:10:44.590Z,21.20
2019-01-14T01:13:39.575Z,21.10
2019-01-14T01:16:34.342Z,21.10
2019-01-14T01:19:29.039Z,21.20
2019-01-14T01:22:23.892Z,21.20
2019-01-14T01:25:18.758Z,21.20
2019-01-14T01:28:13.711Z,21.20
2019-01-14T01:31:08.585Z,21.20
2019-01-14T01:34:03.296Z,21.20
2019-01-14T01:36:57.891Z,21.20
2019-01-14T01:39:52.542Z,21.20
2019-01-14T01:42:47.312Z,21.20
2019-01-14T01:45:42.020Z,21.20
2019-01-14T01:48:37.169Z,21.10
2019-01-14T01:51:32.078Z,21.20
2019-01-14T01:54:27.274Z,21.10
2019-01-14T01:57:21.926Z,21.20
2019-01-14T02:00:22.297Z,21.20
2019-01-14T02:03:17.162Z,21.10
2019-01-14T02:06:11.996Z,21.20
2019-01-14T02:09:07.503Z,21.10
2019-01-14T02:12:02.477Z,21.20
2019-01-14T02:14:57.417Z,21.20
2019-01-14T02:17:52.894Z,21.20
2019-01-14T02:20:47.532Z,21.20
2019-01-14T02:23:43.339Z,21.20
2019-01-14T02:26:38.125Z,21.20
2019-01-14T02:29:33.538Z,21.20
2019-01-14T02:32:28.423Z,21.20
2019-01-14T02:35:23.482Z,21.30
2019-01-14T02:38:18.055Z,21.20
2019-01-14T02:41:13.186Z,21.30
2019-01-14T02:44:08.150Z,21.30
2019-01-14T02:47:03.428Z,21.40
2019-01-14T02:49:58.613Z,21.40
2019-01-14T02:52:53.476Z,21.50
2019-01-14T02:55:48.340Z,21.50
2019-01-14T02:58:43.068Z,21.50
2019-01-14T03:01:38.060Z,21.60
2019-01-14T03:04:33.129Z,21.60
2019-01-14T03:07:27.966Z,21.60
2019-01-14T03:10:23.055Z,21.70
2019-01-14T03:13:17.866Z,21.70
2019-01-14T03:16:12.916Z,21.70
2019-01-14T03:19:07.907Z,21.70
2019-01-14T03:22:02.591Z,21.80
2019-01-14T03:24:58.095Z,21.80
2019-01-14T03:27:52.982Z,21.80
2019-01-14T03:30:47.588Z,21.80
2019-01-14T03:33:42.114Z,21.90
2019-01-14T03:36:37.209Z,21.90
2019-01-14T03:39:32.063Z,21.90
2019-01-14T03:42:26.973Z,22.00
2019-01-14T03:45:22.038Z,22.00
2019-01-14T03:48:17.155Z,22.00
2019-01-14T03:51:11.883Z,22.10
2019-01-14T03:54:06.964Z,22.10
2019-01-14T03:57:01.735Z,22.20
2019-01-14T03:59:56.279Z,22.20
2019-01-14T04:02:50.948Z,22.20
2019-01-14T04:05:45.858Z,22.30
2019-01-14T04:08:40.917Z,22.30
2019-01-14T04:11:35.916Z,22.40
2019-01-14T04:14:31.708Z,22.40
2019-01-14T04:17:26.147Z,22.50
2019-01-14T04:20:21.914Z,22.50
2019-01-14T04:23:16.972Z,22.60
2019-01-14T04:26:11.915Z,22.60
2019-01-14T04:29:07.121Z,22.70
2019-01-14T04:32:02.517Z,22.70
2019-01-14T04:34:57.176Z,22.80
2019-01-14T04:37:53.325Z,22.80
2019-01-14T04:40:48.443Z,22.80
2019-01-14T04:43:43.915Z,22.90
2019-01-14T04:46:39.327Z,22.90
2019-01-14T04:49:35.642Z,22.90
2019-01-14T04:52:31.177Z,23.00
2019-01-14T04:55:25.911Z,23.00
2019-01-14T04:58:20.599Z,23.10
2019-01-14T05:01:15.154Z,23.10
2019-01-14T05:04:10.237Z,23.20
2019-01-14T05:07:04.753Z,23.20
2019-01-14T05:09:59.781Z,23.20
2019-01-14T05:12:57.287Z,23.30
2019-01-14T05:15:52.965Z,23.30
2019-01-14T05:18:49.401Z,23.40
2019-01-14T05:21:44.864Z,23.40
2019-01-14T05:24:44.037Z,23.60
2019-01-14T05:27:39.295Z,23.60
2019-01-14T05:30:34.547Z,23.70
2019-01-14T05:33:36.683Z,23.70
2019-01-14T05:36:34.270Z,23.80
2019-01-14T05:39:30.464Z,23.90
2019-01-14T05:42:26.358Z,24.00
2019-01-14T05:45:36.963Z,24.00
2019-01-14T05:48:36.173Z,24.10
2019-01-14T05:51:43.427Z,24.20
2019-01-14T05:54:40.019Z,24.20
2019-01-14T05:57:38.850Z,24.20
2019-01-14T06:00:42.453Z,24.30
2019-01-14T06:03:44.419Z,24.40
2019-01-14T06:06:41.643Z,24.40
2019-01-14T06:09:40.428Z,24.50
2019-01-14T06:12:40.083Z,24.50
2019-01-14T06:15:40.883Z,24.50
2019-01-14T06:18:38.320Z,24.60
2019-01-14T06:21:36.088Z,24.60
2019-01-14T06:24:31.151Z,24.70
2019-01-14T06:27:27.721Z,24.70
2019-01-14T06:30:26.473Z,24.80
2019-01-14T06:33:22.165Z,24.90
2019-01-14T06:36:25.382Z,24.90
2019-01-14T06:39:20.820Z,25.00
2019-01-14T06:42:16.378Z,25.00
2019-01-14T06:45:12.292Z,25.10
2019-01-14T06:48:15.276Z,25.10
2019-01-14T06:51:11.968Z,25.20
2019-01-14T06:54:30.159Z,25.20
2019-01-14T06:57:36.235Z,25.30
2019-01-14T07:01:28.948Z,25.30
2019-01-14T07:04:27.161Z,25.40
2019-01-14T07:07:23.044Z,25.50
2019-01-14T07:10:24.506Z,25.60
2019-01-14T07:13:19.885Z,25.60
2019-01-14T07:16:15.252Z,25.70
2019-01-14T07:19:10.380Z,25.70
2019-01-14T07:22:06.041Z,25.70
2019-01-14T07:25:27.632Z,25.80
2019-01-14T07:28:23.612Z,25.90
2019-01-14T07:31:18.858Z,26.00
2019-01-14T07:34:25.146Z,26.10
2019-01-14T07:37:28.334Z,26.20
2019-01-14T07:40:30.400Z,26.30
2019-01-14T07:43:38.323Z,26.40
2019-01-14T07:46:37.179Z,26.40
2019-01-14T07:49:34.402Z,26.40
2019-01-14T07:52:30.763Z,26.40
2019-01-14T07:55:39.721Z,26.40
2019-01-14T07:59:20.309Z,26.40
2019-01-14T08:02:32.815Z,26.40
2019-01-14T08:05:29.670Z,26.40
2019-01-14T08:08:26.583Z,26.40
2019-01-14T08:11:38.860Z,26.40
2019-01-14T08:14:45.789Z,26.40
2019-01-14T08:17:45.872Z,26.50
2019-01-14T08:20:38.879Z,26.50
2019-01-14T08:23:34.779Z,26.60
2019-01-14T08:26:30.836Z,26.60
2019-01-14T08:29:30.109Z,26.60
2019-01-14T08:32:26.872Z,26.60
2019-01-14T08:35:30.141Z,26.70
2019-01-14T08:38:23.515Z,26.60
2019-01-14T08:41:21.990Z,26.70
2019-01-14T08:44:15.392Z,26.70
2019-01-14T08:47:12.710Z,26.70
2019-01-14T08:50:08.812Z,26.70
2019-01-14T08:53:10.788Z,26.70
2019-01-14T08:56:10.640Z,26.70
2019-01-14T08:59:05.765Z,26.70
2019-01-14T09:06:04.570Z,26.80
2019-01-14T09:09:43.542Z,26.80
2019-01-14T09:12:38.343Z,26.80
2019-01-14T09:15:33.422Z,26.80
2019-01-14T09:18:28.051Z,26.90
2019-01-14T09:21:25.725Z,26.90
2019-01-14T09:24:21.345Z,27.00
2019-01-14T09:27:41.807Z,27.00
2019-01-14T10:02:02.288Z,27.30
2019-01-14T10:04:57.355Z,28.20
2019-01-14T10:07:52.068Z,28.20
2019-01-14T10:10:47.300Z,28.10
2019-01-14T10:13:42.642Z,28.10
2019-01-14T10:16:38.121Z,27.90
2019-01-14T10:19:33.453Z,27.80
2019-01-14T10:22:37.573Z,27.70
2019-01-14T10:25:34.963Z,27.70
2019-01-14T10:28:30.924Z,27.60
2019-01-14T10:31:26.385Z,27.50
2019-01-14T10:34:22.002Z,27.40
2019-01-14T10:37:22.767Z,27.40
2019-01-14T10:40:14.615Z,27.30
2019-01-14T10:43:09.983Z,27.20
2019-01-14T10:46:06.878Z,27.20
2019-01-14T10:49:06.625Z,27.10
2019-01-14T10:52:07.414Z,27.10
2019-01-14T10:55:12.454Z,27.00
2019-01-14T10:58:23.756Z,27.00
2019-01-14T11:01:28.475Z,26.90
2019-01-14T11:04:34.460Z,26.80
2019-01-14T11:07:31.132Z,26.80
2019-01-14T11:10:54.514Z,26.80
2019-01-14T11:14:01.966Z,26.70
2019-01-14T11:17:18.363Z,26.70
2019-01-14T11:20:58.568Z,26.60
2019-01-14T11:24:02.092Z,26.60
2019-01-14T11:27:29.539Z,26.50
2019-01-14T11:30:41.731Z,26.50
2019-01-14T11:33:44.882Z,26.40
2019-01-14T11:36:49.635Z,26.40
2019-01-14T11:39:50.669Z,26.30
2019-01-14T11:42:49.122Z,26.20
2019-01-14T11:45:49.978Z,26.20
2019-01-14T11:53:25.987Z,26.10
2019-01-14T11:56:30.449Z,26.00
2019-01-14T12:00:02.535Z,26.00
2019-01-14T12:03:02.077Z,25.90
2019-01-14T12:05:59.702Z,25.80
2019-01-14T12:09:02.457Z,25.80
2019-01-14T12:12:18.374Z,25.70
2019-01-14T12:15:18.152Z,25.70
2019-01-14T12:18:18.996Z,25.60
2019-01-14T12:21:15.437Z,25.60
2019-01-14T12:24:12.495Z,25.50
2019-01-14T12:27:11.203Z,25.50
2019-01-14T12:30:07.689Z,25.50
2019-01-14T12:33:05.045Z,25.40
2019-01-14T12:36:02.004Z,25.30
2019-01-14T12:38:58.726Z,25.30
2019-01-14T12:41:55.009Z,25.30
2019-01-14T12:44:57.953Z,25.20
2019-01-14T12:47:59.874Z,25.20
2019-01-14T12:51:06.231Z,25.10
2019-01-14T12:54:07.353Z,25.10
2019-01-14T12:57:19.692Z,25.00
2019-01-14T13:00:21.071Z,25.00
2019-01-14T13:03:19.016Z,25.00
2019-01-14T13:06:13.785Z,24.90
2019-01-14T13:09:12.059Z,24.90
2019-01-14T13:12:08.334Z,24.90
2019-01-14T13:15:07.254Z,24.80
2019-01-14T13:18:07.678Z,24.70
2019-01-14T13:21:04.299Z,24.70
2019-01-14T13:23:59.416Z,24.70
2019-01-14T13:26:54.679Z,24.70
2019-01-14T13:29:50.902Z,24.70
2019-01-14T13:32:46.424Z,24.70
2019-01-14T13:35:41.670Z,24.60
2019-01-14T13:38:36.485Z,24.60
2019-01-14T13:41:31.787Z,24.50
2019-01-14T13:44:26.911Z,24.50
2019-01-14T13:47:23.271Z,24.50
2019-01-14T13:50:20.080Z,24.50
2019-01-14T13:53:15.573Z,24.40
2019-01-14T13:56:10.658Z,24.40
2019-01-14T13:59:05.814Z,24.40
2019-01-14T14:02:00.621Z,24.40
2019-01-14T14:04:56.147Z,24.30
2019-01-14T14:07:51.561Z,24.30
2019-01-14T14:10:46.426Z,24.30
2019-01-14T14:13:41.132Z,24.20
2019-01-14T14:16:35.648Z,24.20
2019-01-14T14:19:30.853Z,24.20
2019-01-14T14:22:25.948Z,24.20
2019-01-14T14:25:20.530Z,24.20
2019-01-14T14:28:16.195Z,24.20
2019-01-14T14:31:11.226Z,24.10
2019-01-14T14:34:06.218Z,24.10
2019-01-14T14:37:01.097Z,24.10
2019-01-14T14:39:56.071Z,24.10
2019-01-14T14:42:50.642Z,24.10
2019-01-14T14:45:45.776Z,24.10
2019-01-14T14:48:40.601Z,24.00
2019-01-14T14:51:35.085Z,24.00
2019-01-14T14:54:29.819Z,24.00
2019-01-14T14:57:24.435Z,24.00
2019-01-14T15:00:21.249Z,24.00
2019-01-14T15:03:16.459Z,23.90
2019-01-14T15:06:11.399Z,23.90
2019-01-14T15:09:07.872Z,23.90
2019-01-14T15:12:03.062Z,23.90
2019-01-14T15:14:58.652Z,23.90
2019-01-14T15:17:53.666Z,23.90
2019-01-14T15:20:48.614Z,23.80
2019-01-14T15:23:43.739Z,23.80
2019-01-14T15:26:38.780Z,23.80
2019-01-14T15:29:33.583Z,23.80
2019-01-14T15:32:28.371Z,23.80
2019-01-14T15:35:23.371Z,23.80
2019-01-14T15:38:18.249Z,23.80
2019-01-14T15:41:13.195Z,23.80
2019-01-14T15:44:08.212Z,23.80
2019-01-14T15:47:03.880Z,23.80
2019-01-14T15:49:58.811Z,23.80
2019-01-14T15:52:54.512Z,23.80
2019-01-14T15:55:49.030Z,23.80
2019-01-14T15:58:44.425Z,23.80
2019-01-14T16:01:39.697Z,23.80
2019-01-14T16:04:34.874Z,23.80
2019-01-14T16:07:29.762Z,23.80
2019-01-14T16:10:26.957Z,23.80
2019-01-14T16:13:22.290Z,23.70
2019-01-14T16:16:17.563Z,23.70
2019-01-14T16:19:12.480Z,23.70
2019-01-14T16:22:08.034Z,23.70
2019-01-14T16:25:03.263Z,23.60
2019-01-14T16:27:57.986Z,23.60
2019-01-14T16:30:53.253Z,23.60
2019-01-14T16:33:47.941Z,23.50
2019-01-14T16:36:42.726Z,23.50
2019-01-14T16:39:37.382Z,23.40
2019-01-14T16:42:32.477Z,23.40
2019-01-14T16:45:29.347Z,23.40
2019-01-14T16:48:24.420Z,23.30
2019-01-14T16:51:19.548Z,23.20
2019-01-14T16:54:14.115Z,23.20
2019-01-14T16:57:08.966Z,23.20
2019-01-14T17:00:04.007Z,23.10
2019-01-14T17:02:59.144Z,23.10
2019-01-14T17:05:54.011Z,23.10
2019-01-14T17:08:48.961Z,23.00
2019-01-14T17:11:43.735Z,23.00
2019-01-14T17:14:38.626Z,23.00
2019-01-14T17:17:33.457Z,22.90
2019-01-14T17:20:28.458Z,22.90
2019-01-14T17:23:23.483Z,22.90
2019-01-14T17:26:18.576Z,22.80
2019-01-14T17:29:13.478Z,22.80
2019-01-14T17:32:08.226Z,22.80
2019-01-14T17:35:02.909Z,22.70
2019-01-14T17:37:57.864Z,22.70
2019-01-14T17:40:52.451Z,22.70
2019-01-14T17:43:47.154Z,22.70
2019-01-14T17:46:42.003Z,22.60
2019-01-14T17:49:36.859Z,22.60
2019-01-14T17:52:31.711Z,22.60
2019-01-14T17:55:26.765Z,22.50
2019-01-14T17:58:21.659Z,22.50
2019-01-14T18:01:16.491Z,22.50
2019-01-14T18:04:11.312Z,22.50
2019-01-14T18:07:06.585Z,22.50
2019-01-14T18:10:01.469Z,22.40
2019-01-14T18:12:56.324Z,22.40
2019-01-14T18:15:51.638Z,22.40
2019-01-14T18:18:46.510Z,22.30
2019-01-14T18:21:41.390Z,22.30
2019-01-14T18:24:36.366Z,22.30
2019-01-14T18:27:31.192Z,22.30
2019-01-14T18:30:26.794Z,22.20
2019-01-14T18:33:21.706Z,22.20
2019-01-14T18:36:17.121Z,22.20
2019-01-14T18:39:13.012Z,22.20
2019-01-14T18:42:08.146Z,22.20
2019-01-14T18:45:02.893Z,22.10
2019-01-14T18:47:57.789Z,22.10
2019-01-14T18:50:52.911Z,22.10
2019-01-14T18:53:47.701Z,22.10
2019-01-14T18:56:42.396Z,22.00
2019-01-14T18:59:36.912Z,22.00
2019-01-14T19:02:31.681Z,22.00
2019-01-14T19:05:26.749Z,22.00
2019-01-14T19:08:21.878Z,22.00
2019-01-14T19:11:16.904Z,22.00
2019-01-14T19:14:11.589Z,21.90
2019-01-14T19:17:06.148Z,21.90
2019-01-14T19:20:00.808Z,21.90
2019-01-14T19:22:55.894Z,21.80
2019-01-14T19:25:50.499Z,21.80
2019-01-14T19:28:45.290Z,21.80
2019-01-14T19:31:40.154Z,21.70
2019-01-14T19:34:35.084Z,21.70
2019-01-14T19:37:29.762Z,21.60
2019-01-14T19:40:25.263Z,21.70
2019-01-14T19:43:20.140Z,21.60
2019-01-14T19:46:14.982Z,21.60
2019-01-14T19:49:10.024Z,21.50
2019-01-14T19:52:04.839Z,21.50
2019-01-14T19:54:59.543Z,21.50
2019-01-14T19:57:54.307Z,21.50
2019-01-14T20:00:48.828Z,21.50
2019-01-14T20:03:44.335Z,21.50
2019-01-14T20:06:38.907Z,21.40
2019-01-14T20:22:31.742Z,21.40
2019-01-14T20:25:26.502Z,21.80
2019-01-14T20:28:21.073Z,21.80
2019-01-14T20:31:15.882Z,21.70
2019-01-14T20:34:10.873Z,21.60
2019-01-14T20:37:05.748Z,21.50
2019-01-14T20:40:00.335Z,21.50
2019-01-14T20:42:55.444Z,21.40
2019-01-14T20:45:50.273Z,21.40
2019-01-14T20:48:45.084Z,21.30
2019-01-14T20:51:40.206Z,21.20
2019-01-14T20:54:35.265Z,21.20
2019-01-14T20:57:30.276Z,21.20
2019-01-14T21:00:27.809Z,21.10
2019-01-14T21:03:22.552Z,21.10
2019-01-14T21:06:17.252Z,21.10
2019-01-14T21:09:12.486Z,21.00
2019-01-14T21:12:07.383Z,21.00
2019-01-14T21:15:02.069Z,21.00
2019-01-14T21:17:57.204Z,20.90
2019-01-14T21:20:51.895Z,20.90
2019-01-14T21:23:46.685Z,20.90
2019-01-14T21:26:41.895Z,20.90
2019-01-14T21:29:36.784Z,20.80
2019-01-14T21:32:32.057Z,20.80
2019-01-14T21:35:26.871Z,20.80
2019-01-14T21:38:21.951Z,20.80
2019-01-14T21:41:16.890Z,20.70
2019-01-14T21:44:11.702Z,20.70
2019-01-14T21:47:06.756Z,20.70
2019-01-14T21:50:02.297Z,20.70
2019-01-14T21:52:57.027Z,20.70
2019-01-14T21:55:51.745Z,20.70
2019-01-14T21:58:47.022Z,20.70
2019-01-14T22:01:42.161Z,20.70
2019-01-14T22:04:37.657Z,20.70
2019-01-14T22:07:33.930Z,20.70
2019-01-14T22:10:30.612Z,20.70
2019-01-14T22:13:26.320Z,20.70
2019-01-14T22:16:21.589Z,20.70
2019-01-14T22:19:16.520Z,20.70
2019-01-14T22:22:11.876Z,20.60
2019-01-14T22:25:07.441Z,20.60
2019-01-14T22:28:02.434Z,20.50
2019-01-14T22:30:57.997Z,20.50
2019-01-14T22:33:52.717Z,20.40
2019-01-14T22:36:47.482Z,20.40
2019-01-14T22:39:42.355Z,20.30
2019-01-14T22:42:37.219Z,20.30
2019-01-14T22:45:32.009Z,20.20
2019-01-14T22:48:26.914Z,20.20
2019-01-14T22:51:21.987Z,20.10
2019-01-14T22:54:17.271Z,20.10
2019-01-14T22:57:12.234Z,20.10
2019-01-14T23:00:08.295Z,20.10
2019-01-14T23:03:03.510Z,20.00
2019-01-14T23:05:58.995Z,20.00
2019-01-14T23:08:53.955Z,20.00
2019-01-14T23:11:52.970Z,20.00
2019-01-14T23:14:43.820Z,19.90
2019-01-14T23:17:38.706Z,19.90
2019-01-14T23:20:33.742Z,19.90
2019-01-14T23:23:29.495Z,19.90
2019-01-14T23:26:24.448Z,19.80
2019-01-14T23:29:19.298Z,19.90
2019-01-14T23:32:14.105Z,19.80
2019-01-14T23:35:09.439Z,19.80
2019-01-14T23:38:04.549Z,19.80
2019-01-14T23:40:59.467Z,19.80
2019-01-14T23:43:54.636Z,19.70
2019-01-14T23:46:50.023Z,19.70
2019-01-14T23:49:45.347Z,19.70
2019-01-14T23:52:39.986Z,19.60
2019-01-14T23:55:34.770Z,19.60
2019-01-14T23:58:29.532Z,19.60
